Time;durP1;ratioP1;P1;durP2;ratioP2;P2;SDS_P1;SDS_P2;PMS_P1;PMS_P2;Temp;Humidity;BMP_temperature;BMP_pressure;BME280_temperature;BME280_humidity;BME280_pressure;Samples;Min_cycle;Max_cycle;Signal;HPM_P1;HPM_P2
2022/06/12 00:01:54;;;;;;;11.03;6.47;;;;;;;21.86;49.66;100592.22;2248023;87;25647;-76
2022/06/12 00:05:22;;;;;;;7.40;6.25;;;;;;;21.82;49.60;100589.67;2249798;87;26104;-75
2022/06/12 00:08:55;;;;;;;13.93;6.47;;;;;;;21.69;49.71;100585.04;2247680;87;25590;-78
2022/06/12 00:12:23;;;;;;;7.90;6.40;;;;;;;21.71;49.83;100590.33;2244740;87;25563;-72
2022/06/12 00:15:51;;;;;;;9.30;6.28;;;;;;;21.81;49.78;100586.60;2285704;85;25640;-73
2022/06/12 00:19:14;;;;;;;13.18;5.90;;;;;;;21.82;49.83;100594.97;2245080;87;25759;-72
2022/06/12 00:22:49;;;;;;;9.13;5.22;;;;;;;21.82;49.85;100588.34;2284737;85;25640;-71
2022/06/12 00:26:31;;;;;;;11.57;6.03;;;;;;;21.77;49.96;100596.41;2287573;84;25666;-78
2022/06/12 00:30:07;;;;;;;6.97;5.55;;;;;;;21.71;50.09;100592.98;2287290;85;25696;-74
2022/06/12 00:33:44;;;;;;;14.25;6.35;;;;;;;21.76;50.09;100594.62;2246718;87;25800;-72
2022/06/12 00:37:17;;;;;;;9.60;5.42;;;;;;;21.75;50.10;100596.00;2284023;85;25511;-71
2022/06/12 00:40:43;;;;;;;6.45;4.65;;;;;;;21.74;50.12;100588.95;2286955;85;25344;-75
2022/06/12 00:44:29;;;;;;;6.78;5.42;;;;;;;21.73;50.22;100589.83;2280437;86;25646;-72
2022/06/12 00:48:26;;;;;;;11.00;4.58;;;;;;;21.72;50.27;100592.08;2222053;87;25740;-72
2022/06/12 00:51:51;;;;;;;6.30;4.60;;;;;;;21.67;50.33;100589.52;2222720;88;25712;-71
2022/06/12 00:55:29;;;;;;;5.30;4.80;;;;;;;21.62;50.39;100583.41;2220177;87;25845;-69
2022/06/12 00:59:07;;;;;;;8.15;4.47;;;;;;;21.59;50.50;100584.78;2214503;87;25707;-71
2022/06/12 01:02:36;;;;;;;;;;;;;;;21.56;50.50;100586.17;2225508;88;25741;-72
2022/06/12 01:09:44;;;;;;;5.72;4.50;;;;;;;21.69;50.44;100585.91;2223253;88;25811;-73
2022/06/12 01:13:20;;;;;;;8.40;4.72;;;;;;;21.74;50.31;100581.86;2200560;88;26445;-77
2022/06/12 01:16:58;;;;;;;4.95;4.20;;;;;;;21.76;50.28;100581.81;2217500;88;25775;-73
2022/06/12 01:20:27;;;;;;;11.73;4.87;;;;;;;21.67;50.37;100579.77;2196127;87;25905;-80
2022/06/12 01:24:35;;;;;;;6.17;4.75;;;;;;;21.58;50.49;100574.63;2222583;88;25667;-71
2022/06/12 01:28:27;;;;;;;7.67;4.40;;;;;;;21.52;50.64;100572.55;2225452;88;25886;-83
2022/06/12 01:32:22;;;;;;;8.63;5.42;;;;;;;21.42;50.69;100567.86;2218768;88;26030;-79
2022/06/12 01:36:17;;;;;;;6.62;5.42;;;;;;;21.38;50.68;100568.81;2219530;87;25554;-72
2022/06/12 01:40:26;;;;;;;6.80;4.67;;;;;;;21.34;50.74;100573.30;2224236;88;25765;-70
2022/06/12 01:44:20;;;;;;;7.62;4.55;;;;;;;21.31;50.74;100571.12;2277842;86;25968;-71
2022/06/12 01:48:11;;;;;;;6.65;4.95;;;;;;;21.24;50.83;100574.33;2243545;87;25631;-77
2022/06/12 01:52:25;;;;;;;4.62;4.20;;;;;;;21.19;50.96;100570.87;2204722;86;25759;-72
2022/06/12 01:56:17;;;;;;;6.60;4.45;;;;;;;21.15;51.09;100571.38;2242527;86;25627;-76
2022/06/12 02:00:00;;;;;;;;;;;;;;;21.09;51.24;100573.25;2237347;86;25811;-71
2022/06/12 02:03:52;;;;;;;6.78;4.30;;;;;;;21.03;51.41;100569.41;2234746;86;25667;-77
2022/06/12 02:07:39;;;;;;;4.03;3.72;;;;;;;20.94;51.46;100567.30;2233162;86;25883;-71
2022/06/12 02:15:37;;;;;;;4.70;4.08;;;;;;;20.89;51.84;100570.50;2237716;86;25342;-90
2022/06/12 02:19:03;;;;;;;5.62;4.03;;;;;;;20.88;52.00;100570.50;2211125;88;25657;-72
2022/06/12 02:22:28;;;;;;;8.68;4.28;;;;;;;20.86;52.10;100569.67;2209708;88;25670;-75
2022/06/12 02:25:56;;;;;;;7.92;3.85;;;;;;;20.83;52.22;100574.56;2171028;89;25727;-71
2022/06/12 02:29:50;;;;;;;7.78;5.35;;;;;;;20.79;52.31;100570.22;2161916;90;25711;-81
2022/06/12 02:33:25;;;;;;;8.25;4.35;;;;;;;20.76;52.44;100560.98;2178705;89;25973;-74
2022/06/12 02:36:51;;;;;;;6.30;4.92;;;;;;;20.76;52.51;100557.01;2144186;91;25480;-74
2022/06/12 02:40:51;;;;;;;6.00;4.97;;;;;;;20.73;52.48;100565.87;2175853;90;25919;-71
2022/06/12 02:44:25;;;;;;;8.25;4.62;;;;;;;20.71;52.52;100563.68;2178633;90;25821;-72
2022/06/12 02:47:48;;;;;;;11.60;6.22;;;;;;;20.69;52.48;100564.62;2175146;88;25783;-71
2022/06/12 02:52:00;;;;;;;;;;;;;;;;;;;;;
2022/06/12 02:55:43;;;;;;;10.60;5.33;;;;;;;20.71;52.26;100566.78;2217075;87;26239;-78
2022/06/12 02:59:24;;;;;;;13.50;5.70;;;;;;;20.71;52.18;100568.11;2224591;87;25807;-74
2022/06/12 03:02:50;;;;;;;6.12;5.50;;;;;;;20.73;52.14;100565.87;2232952;87;25523;-72
2022/06/12 03:06:14;;;;;;;9.15;5.60;;;;;;;20.73;52.11;100562.36;2248497;87;25369;-71
2022/06/12 03:09:41;;;;;;;12.53;5.67;;;;;;;20.68;52.07;100558.88;2202554;83;25732;-71
2022/06/12 03:13:14;;;;;;;5.00;4.58;;;;;;;20.66;52.14;100567.32;2161372;90;25879;-71
2022/06/12 03:16:41;;;;;;;11.22;5.42;;;;;;;20.66;52.20;100565.55;2219804;88;25663;-71
2022/06/12 03:20:04;;;;;;;8.83;5.83;;;;;;;20.66;52.22;100567.32;2260507;85;25730;-71
2022/06/12 03:24:22;;;;;;;4.92;4.40;;;;;;;20.67;52.32;100570.39;2267881;84;25623;-72
2022/06/12 03:28:06;;;;;;;10.88;5.08;;;;;;;20.71;52.37;100562.81;2241997;86;25671;-72
2022/06/12 03:31:45;;;;;;;7.30;5.22;;;;;;;20.80;52.34;100568.44;2290408;85;25619;-72
2022/06/12 03:35:20;;;;;;;10.32;5.20;;;;;;;20.87;52.25;100565.66;2282302;86;25612;-81
2022/06/12 03:38:57;;;;;;;8.60;5.10;;;;;;;20.95;52.07;100560.23;2283130;83;25666;-71
2022/06/12 03:42:24;;;;;;;6.83;5.10;;;;;;;21.02;51.83;100566.30;2245114;87;25774;-75
2022/06/12 03:46:28;;;;;;;7.78;4.70;;;;;;;21.03;51.75;100564.97;2287933;85;25727;-81
2022/06/12 03:50:13;;;;;;;4.97;4.47;;;;;;;21.07;51.65;100571.97;2243938;87;25716;-73
2022/06/12 03:54:20;;;;;;;5.85;4.50;;;;;;;21.14;51.58;100563.46;2243777;87;25776;-79
2022/06/12 03:58:00;;;;;;;6.28;4.67;;;;;;;21.25;51.63;100572.09;2285241;84;25775;-71
2022/06/12 04:01:28;;;;;;;5.03;4.58;;;;;;;21.37;51.47;100576.36;2289195;85;25793;-75
2022/06/12 04:05:02;;;;;;;9.43;4.40;;;;;;;21.45;51.46;100579.28;2272914;85;25706;-72
2022/06/12 04:08:39;;;;;;;8.63;4.00;;;;;;;21.56;51.23;100573.77;2285399;85;25339;-91
2022/06/12 04:12:11;;;;;;;5.40;4.05;;;;;;;21.75;51.21;100580.08;2289472;85;25683;-85
2022/06/12 04:15:51;;;;;;;10.15;3.67;;;;;;;22.00;50.96;100574.69;2287191;85;25774;-73
2022/06/12 04:19:18;;;;;;;6.45;3.95;;;;;;;22.21;50.80;100580.06;2247214;87;25632;-73
2022/06/12 04:23:00;;;;;;;5.35;3.67;;;;;;;22.40;50.57;100581.85;2283264;85;25603;-72
2022/06/12 04:26:47;;;;;;;;;;;;;;;;;;;;;
2022/06/12 04:30:20;;;;;;;;;;;;;;;22.69;50.08;100586.52;2143241;91;25976;-72
2022/06/12 04:34:26;;;;;;;4.05;3.75;;;;;;;22.75;49.78;100589.51;2143278;91;25453;-77
2022/06/12 04:37:50;;;;;;;5.50;3.40;;;;;;;22.73;49.67;100589.98;2141385;91;25772;-75
2022/06/12 04:41:31;;;;;;;8.65;3.95;;;;;;;22.74;49.56;100594.38;2142925;91;25827;-76
2022/06/12 04:45:00;;;;;;;6.25;2.87;;;;;;;22.80;49.51;100599.56;2144205;90;25863;-72
2022/06/12 04:48:37;;;;;;;4.28;2.50;;;;;;;22.91;49.51;100601.96;2144023;91;25848;-73
2022/06/12 04:52:02;;;;;;;3.30;2.75;;;;;;;23.00;49.38;100599.99;2087451;93;25440;-79
2022/06/12 04:55:23;;;;;;;6.03;2.40;;;;;;;23.10;49.26;100596.66;2073729;94;25945;-74
2022/06/12 04:58:49;;;;;;;3.67;2.27;;;;;;;23.14;49.02;100596.99;2098370;92;25964;-72
2022/06/12 05:02:16;;;;;;;2.30;1.95;;;;;;;23.16;48.85;100595.64;2088925;92;25761;-71
2022/06/12 05:05:47;;;;;;;3.92;1.62;;;;;;;23.14;48.34;100598.78;2109877;92;25686;-73
2022/06/12 05:09:24;;;;;;;5.00;2.05;;;;;;;23.09;47.96;100598.45;2038389;95;25806;-73
2022/06/12 05:12:45;;;;;;;6.90;2.17;;;;;;;23.12;47.80;100600.59;2098179;92;25826;-84
2022/06/12 05:16:28;;;;;;;3.65;1.75;;;;;;;23.16;47.59;100595.64;2107226;92;25862;-73
2022/06/12 05:23:36;;;;;;;;;;;;;;;23.24;46.92;100598.97;1980417;97;25935;-72
2022/06/12 05:26:59;;;;;;;1.98;1.10;;;;;;;23.27;46.59;100597.56;1957067;98;25863;-72
2022/06/12 05:30:28;;;;;;;3.35;1.70;;;;;;;23.31;46.38;100597.44;2012470;96;25919;-71
2022/06/12 05:33:49;;;;;;;3.60;1.02;;;;;;;23.40;46.15;100602.99;1998456;97;26171;-77
2022/06/12 05:37:15;;;;;;;2.42;0.90;;;;;;;23.51;45.96;100604.04;2009495;96;26082;-73
2022/06/12 05:40:38;;;;;;;2.27;0.80;;;;;;;23.67;45.75;100595.20;2008678;97;25785;-71
2022/06/12 05:44:05;;;;;;;5.70;1.47;;;;;;;23.86;45.43;100603.14;2012604;97;25718;-88
2022/06/12 05:47:50;;;;;;;2.30;0.98;;;;;;;24.02;45.09;100591.58;2035940;92;25899;-77
2022/06/12 05:51:22;;;;;;;3.37;1.02;;;;;;;24.18;44.99;100590.69;2104138;93;25827;-78
2022/06/12 05:54:43;;;;;;;8.03;2.50;;;;;;;24.38;44.71;100599.42;2211739;86;25638;-72
2022/06/12 05:58:07;;;;;;;2.40;1.10;;;;;;;24.62;44.43;100591.17;2250449;86;25659;-72
2022/06/12 06:01:30;;;;;;;2.22;1.10;;;;;;;24.83;44.22;100598.48;2219307;86;25911;-72
2022/06/12 06:04:54;;;;;;;5.45;1.12;;;;;;;25.00;44.11;100594.41;2249997;86;25889;-72
2022/06/12 06:08:21;;;;;;;2.05;0.95;;;;;;;25.16;43.80;100597.88;2250667;86;25922;-73
2022/06/12 06:11:57;;;;;;;1.67;0.85;;;;;;;25.33;43.75;100608.45;2229839;86;26083;-72
2022/06/12 06:15:22;;;;;;;1.72;1.10;;;;;;;25.58;43.85;100601.36;2211788;88;25693;-73
2022/06/12 06:18:43;;;;;;;1.30;0.80;;;;;;;25.83;43.03;100610.73;2216390;88;25779;-75
2022/06/12 06:22:22;;;;;;;6.87;1.00;;;;;;;26.00;42.41;100613.27;2234833;86;25748;-72
2022/06/12 06:25:41;;;;;;;5.00;1.10;;;;;;;26.03;41.89;100607.34;2257960;86;26291;-74
2022/06/12 06:29:10;;;;;;;2.72;0.85;;;;;;;26.21;41.87;100605.77;2252766;86;25732;-72
2022/06/12 06:32:34;;;;;;;3.58;1.02;;;;;;;26.49;41.78;100597.59;2178984;88;25860;-73
2022/06/12 06:35:59;;;;;;;4.62;0.90;;;;;;;26.78;41.44;100604.48;2216566;87;26855;-72
2022/06/12 06:39:25;;;;;;;2.20;1.05;;;;;;;27.08;40.95;100602.84;2215334;88;25736;-76
2022/06/12 06:42:51;;;;;;;1.22;0.88;;;;;;;27.36;40.72;100603.91;2214014;88;26421;-71
2022/06/12 06:46:17;;;;;;;1.82;0.93;;;;;;;27.71;39.69;100610.91;2180438;89;25841;-72
2022/06/12 06:49:41;;;;;;;1.52;0.75;;;;;;;27.99;38.70;100610.11;2212505;88;26391;-72
2022/06/12 06:53:15;;;;;;;2.05;0.80;;;;;;;28.16;38.06;100597.75;2207080;87;25742;-72
2022/06/12 06:56:36;;;;;;;1.65;0.90;;;;;;;28.43;37.61;100595.16;2186249;86;25847;-72
2022/06/12 07:00:04;;;;;;;1.22;0.80;;;;;;;28.76;37.49;100601.67;2221794;86;25796;-74
2022/06/12 07:03:29;;;;;;;1.17;0.80;;;;;;;29.12;37.39;100597.18;2219173;87;25945;-72
2022/06/12 07:06:58;;;;;;;4.00;0.80;;;;;;;29.54;36.90;100594.61;2198135;88;26593;-73
2022/06/12 07:10:25;;;;;;;1.20;0.70;;;;;;;29.88;36.23;100591.53;2220100;87;25698;-74
2022/06/12 07:13:51;;;;;;;3.00;0.95;;;;;;;30.21;34.93;100591.56;2220230;87;25760;-71
2022/06/12 07:17:13;;;;;;;2.58;1.22;;;;;;;30.40;34.22;100588.70;2217253;87;25237;-72
2022/06/12 07:20:47;;;;;;;5.60;1.00;;;;;;;30.35;34.21;100582.24;2218651;87;26655;-72
2022/06/12 07:24:12;;;;;;;2.08;1.10;;;;;;;30.15;33.78;100590.99;2218536;88;25749;-72
2022/06/12 07:27:38;;;;;;;3.10;0.90;;;;;;;29.86;33.93;100588.91;2210313;87;25758;-72
2022/06/12 07:30:58;;;;;;;9.38;0.93;;;;;;;29.54;34.02;100584.34;2205486;89;25925;-79
2022/06/12 07:34:23;;;;;;;2.60;1.20;;;;;;;29.17;34.47;100577.70;2206863;88;25811;-76
2022/06/12 07:37:48;;;;;;;1.92;0.78;;;;;;;28.87;34.50;100577.86;2211774;88;25969;-72
2022/06/12 07:41:14;;;;;;;2.15;1.17;;;;;;;28.58;34.70;100576.58;2205980;89;25683;-74
2022/06/12 07:44:36;;;;;;;3.40;1.07;;;;;;;28.43;34.75;100572.83;2202265;89;25462;-72
2022/06/12 07:47:58;;;;;;;1.87;1.12;;;;;;;28.35;35.04;100574.95;2207609;89;25889;-72
2022/06/12 07:51:22;;;;;;;3.62;1.17;;;;;;;28.33;35.02;100568.81;2208125;88;25814;-72
2022/06/12 07:54:46;;;;;;;3.87;0.90;;;;;;;28.24;35.17;100569.63;2204101;89;25815;-72
2022/06/12 07:58:13;;;;;;;4.92;1.02;;;;;;;28.27;35.26;100573.98;2205868;89;25727;-71
2022/06/12 08:01:36;;;;;;;1.50;1.12;;;;;;;28.41;35.23;100569.34;2206754;88;26074;-73
2022/06/12 08:05:00;;;;;;;2.35;1.42;;;;;;;28.61;35.35;100567.05;2186147;88;25819;-73
2022/06/12 08:08:24;;;;;;;1.92;1.00;;;;;;;28.91;35.21;100574.07;2184982;89;25889;-71
2022/06/12 08:11:50;;;;;;;3.37;1.15;;;;;;;29.19;34.82;100572.23;2205798;89;26195;-71
2022/06/12 08:15:25;;;;;;;3.42;0.80;;;;;;;29.52;34.64;100571.45;2209983;88;26509;-76
2022/06/12 08:18:53;;;;;;;2.30;1.07;;;;;;;29.95;34.66;100570.08;2209611;88;25731;-71
2022/06/12 08:22:24;;;;;;;2.55;0.85;;;;;;;30.40;34.27;100573.05;2189194;89;25729;-78
2022/06/12 08:26:07;;;;;;;;;;;;;;;30.79;33.72;100578.89;2207332;89;25813;-75
2022/06/12 08:29:31;;;;;;;2.12;1.10;;;;;;;31.04;33.17;100574.28;2205358;88;25734;-76
2022/06/12 08:33:05;;;;;;;3.27;1.20;;;;;;;31.44;32.87;100570.59;2209233;88;25871;-88
2022/06/12 08:36:46;;;;;;;3.62;0.95;;;;;;;31.60;31.87;100570.55;2203831;88;25783;-82
2022/06/12 08:41:27;;;;;;;1.32;0.90;;;;;;;31.07;32.21;100570.55;2158435;90;25373;-81
2022/06/12 08:45:40;;;;;;;3.98;1.00;;;;;;;30.69;32.64;100562.84;2094724;92;25876;-82
2022/06/12 09:08:00;;;;;;;1.30;0.80;;;;;;;30.90;33.45;100555.38;2404954;77;26840;-82
2022/06/12 09:12:08;;;;;;;2.30;1.00;;;;;;;31.16;33.12;100553.85;2263199;84;25583;-77
2022/06/12 09:16:09;;;;;;;1.92;1.00;;;;;;;31.57;32.23;100544.27;2269119;84;25745;-77
2022/06/12 09:20:22;;;;;;;2.05;1.07;;;;;;;32.35;31.44;100549.66;2270125;84;26343;-78
2022/06/12 09:29:01;;;;;;;6.05;1.20;;;;;;;33.42;30.35;100552.48;2140665;90;25783;-76
2022/06/12 09:32:46;;;;;;;2.55;1.00;;;;;;;33.73;29.90;100544.47;2116671;91;26845;-78
2022/06/12 09:37:09;;;;;;;2.22;1.27;;;;;;;33.72;29.48;100545.45;2152086;88;25713;-76
2022/06/12 09:45:57;;;;;;;2.40;1.02;;;;;;;33.95;29.35;100532.96;2186453;89;25750;-78
2022/06/12 09:54:53;;;;;;;2.65;1.42;;;;;;;34.17;29.55;100526.91;2028352;96;25843;-77
2022/06/12 09:59:09;;;;;;;5.30;1.70;;;;;;;34.57;29.68;100529.42;1965246;98;25875;-77
2022/06/12 10:03:22;;;;;;;2.67;1.45;;;;;;;34.84;29.87;100531.04;1914366;101;26257;-77
2022/06/12 10:07:32;;;;;;;;;;;;;;;35.10;29.79;100528.59;1819602;106;25916;-77
2022/06/12 10:11:49;;;;;;;3.67;1.45;;;;;;;35.16;29.81;100531.30;1825858;102;25807;-78
2022/06/12 10:15:59;;;;;;;6.72;1.72;;;;;;;35.01;29.84;100530.61;1820462;107;25934;-78
2022/06/12 10:19:59;;;;;;;;;;;;;;;;;;;;;
2022/06/12 10:23:46;;;;;;;7.65;1.52;;;;;;;34.90;29.54;100532.80;1820264;106;25947;-78
2022/06/12 10:27:46;;;;;;;3.60;1.98;;;;;;;34.84;29.30;100526.48;1837779;105;26212;-78
2022/06/12 10:31:24;;;;;;;4.20;1.77;;;;;;;34.69;29.15;100523.06;1860412;106;25902;-80
2022/06/12 10:36:01;;;;;;;3.20;1.82;;;;;;;34.52;29.21;100519.41;1845968;107;25848;-81
2022/06/12 10:39:40;;;;;;;;;;;;;;;;;;;;;
2022/06/12 10:43:46;;;;;;;5.25;1.72;;;;;;;34.14;29.57;100511.39;1864585;99;35139;-75
2022/06/12 10:48:09;;;;;;;;;;;;;;;;;;;;;
2022/06/12 10:51:57;;;;;;;3.42;1.70;;;;;;;33.54;29.74;100509.73;1925536;101;25792;-77
2022/06/12 11:00:36;;;;;;;5.97;2.00;;;;;;;32.92;30.26;100494.64;1854477;105;25927;-76
2022/06/12 11:04:48;;;;;;;2.72;2.05;;;;;;;32.56;30.70;100493.44;1869153;102;25392;-78
2022/06/12 11:13:30;;;;;;;3.20;2.12;;;;;;;32.19;31.77;100486.86;1906967;100;26087;-77
2022/06/12 11:17:58;;;;;;;3.90;2.17;;;;;;;32.62;32.06;100486.28;1881956;103;25986;-78
2022/06/12 11:22:02;;;;;;;3.10;1.92;;;;;;;32.59;32.07;100428.94;1887301;103;25394;-78
2022/06/12 11:26:25;;;;;;;;;;;;;;;;;;;;;
2022/06/12 11:33:56;;;;;;;2.50;1.80;;;;;;;33.73;31.02;100469.25;1976478;98;25873;-77
2022/06/12 11:38:20;;;;;;;6.53;1.92;;;;;;;34.09;30.49;100468.45;1975803;98;25906;-76
2022/06/12 11:46:52;;;;;;;3.50;1.70;;;;;;;34.68;29.29;100474.45;1957618;100;25851;-77
2022/06/12 11:50:47;;;;;;;2.72;1.50;;;;;;;34.97;29.04;100468.17;1951949;99;25718;-75
2022/06/12 11:55:08;;;;;;;3.30;1.57;;;;;;;35.18;28.67;100452.97;2011536;96;25710;-77
2022/06/12 11:59:26;;;;;;;4.62;1.27;;;;;;;35.41;28.38;100451.66;2025324;96;25797;-76
2022/06/12 12:03:32;;;;;;;1.57;1.37;;;;;;;35.54;27.93;100444.77;2032713;93;25804;-78
2022/06/12 12:07:31;;;;;;;3.77;1.50;;;;;;;35.75;27.78;100438.98;2020208;96;25855;-77
2022/06/12 12:15:34;;;;;;;;;;;;;;;;;;;;;
2022/06/12 12:24:06;;;;;;;3.90;1.60;;;;;;;36.58;27.18;100422.66;1795853;107;25866;-77
2022/06/12 12:46:24;;;;;;;4.85;1.62;;;;;;;37.32;26.37;100403.58;1818930;107;26032;-78
2022/06/12 12:50:14;;;;;;;2.55;1.60;;;;;;;37.46;26.01;100402.38;1817501;106;25883;-78
2022/06/12 12:54:21;;;;;;;6.45;1.12;;;;;;;37.31;25.76;100403.22;1860844;104;25793;-77
2022/06/12 12:58:59;;;;;;;;;;;;;;;;;;;;;
2022/06/12 13:07:28;;;;;;;1.30;1.10;;;;;;;36.34;25.71;100378.91;1805422;107;25858;-81
2022/06/12 13:20:52;;;;;;;6.95;1.15;;;;;;;36.80;25.37;100378.23;1805381;107;26018;-79
2022/06/12 13:24:50;;;;;;;2.72;1.37;;;;;;;37.00;25.09;100376.03;1809007;104;26032;-78
2022/06/12 13:28:35;;;;;;;2.25;1.65;;;;;;;36.92;24.91;100382.58;1804533;107;25819;-77
2022/06/12 13:36:39;;;;;;;;;;;;;;;;;;;;;
2022/06/12 13:41:06;;;;;;;;;;;;;;;;;;;;;
2022/06/12 13:44:33;;;;;;;1.62;0.90;;;;;;;36.98;24.51;100379.36;1797191;108;25836;-78
2022/06/12 13:48:40;;;;;;;1.27;0.80;;;;;;;36.91;24.27;100377.30;1793923;108;26334;-81
2022/06/12 13:52:32;;;;;;;2.17;1.22;;;;;;;36.55;24.34;100374.03;1795170;108;25882;-78
2022/06/12 13:56:01;;;;;;;9.78;1.00;;;;;;;36.35;24.57;100368.44;1786895;107;26019;-77
2022/06/12 13:59:43;;;;;;;2.98;0.88;;;;;;;36.10;24.71;100372.84;1794822;106;25948;-78
2022/06/12 14:03:53;;;;;;;3.85;0.90;;;;;;;35.91;24.54;100368.04;1780909;108;25479;-80
2022/06/12 14:07:45;;;;;;;;;;;;;;;;;;;;;
2022/06/12 14:11:37;;;;;;;4.30;1.40;;;;;;;35.56;24.57;100361.46;1820299;104;26741;-78
2022/06/12 14:23:36;;;;;;;;;;;;;;;;;;;;;
2022/06/12 14:27:31;;;;;;;3.67;1.05;;;;;;;34.64;25.07;100357.89;1950841;98;25815;-76
2022/06/12 14:31:21;;;;;;;3.98;1.10;;;;;;;34.38;25.34;100344.47;1889535;103;25869;-76
2022/06/12 14:39:00;;;;;;;2.55;1.00;;;;;;;33.99;25.56;100345.64;1871179;103;25859;-76
2022/06/12 14:46:40;;;;;;;6.95;0.90;;;;;;;33.64;25.92;100334.22;1843836;105;25445;-77
2022/06/12 14:50:15;;;;;;;4.62;1.00;;;;;;;33.49;26.09;100329.47;1848323;104;25816;-79
2022/06/12 14:53:37;;;;;;;2.62;0.95;;;;;;;33.37;26.07;100328.47;1790080;109;25512;-79
2022/06/12 14:57:25;;;;;;;;;;;;;;;;;;;;;
2022/06/12 15:00:55;;;;;;;1.67;1.07;;;;;;;33.05;26.00;100324.05;1778987;109;26167;-78
2022/06/12 15:09:51;;;;;;;;;;;;;;;;;;;;;
2022/06/12 15:14:18;;;;;;;3.58;1.20;;;;;;;32.41;26.46;100301.50;1731460;112;25937;-78
2022/06/12 15:17:42;;;;;;;3.55;0.90;;;;;;;32.17;26.66;100296.81;1739360;112;25926;-78
2022/06/12 15:21:24;;;;;;;2.15;0.93;;;;;;;32.04;26.86;100299.95;1759250;110;25887;-76
2022/06/12 15:25:13;;;;;;;1.50;0.75;;;;;;;31.88;27.12;100295.20;1693069;115;25897;-76
2022/06/12 15:33:00;;;;;;;3.00;1.20;;;;;;;31.52;27.30;100283.14;1764430;104;26013;-77
2022/06/12 15:41:00;;;;;;;2.10;0.80;;;;;;;31.18;27.24;100275.00;1837778;102;25800;-77
2022/06/12 15:44:35;;;;;;;4.62;1.30;;;;;;;30.99;27.41;100265.41;1865738;104;25886;-76
2022/06/12 15:48:48;;;;;;;;;;;;;;;;;;;;;
2022/06/12 15:52:31;;;;;;;2.72;1.37;;;;;;;30.78;27.43;100250.59;1900001;102;25788;-76
2022/06/12 15:56:01;;;;;;;1.87;0.93;;;;;;;30.69;27.29;100238.56;1899547;102;25798;-76
2022/06/12 15:59:46;;;;;;;1.57;0.65;;;;;;;30.66;27.21;100244.62;1916755;100;25844;-78
2022/06/12 16:03:31;;;;;;;;;;;;;;;;;;;;;
2022/06/12 16:07:06;;;;;;;2.40;0.90;;;;;;;30.44;27.17;100233.81;1922760;100;25808;-76
2022/06/12 16:11:03;;;;;;;0.90;0.70;;;;;;;30.37;26.94;100225.74;1923114;102;25720;-78
2022/06/12 16:14:35;;;;;;;3.17;0.90;;;;;;;30.33;26.98;100217.48;1922724;101;25840;-76
2022/06/12 16:18:04;;;;;;;3.22;0.80;;;;;;;30.29;27.04;100211.91;1922646;101;25801;-77
2022/06/12 16:21:41;;;;;;;6.62;2.10;;;;;;;30.21;27.16;100208.84;1932471;100;25776;-78
2022/06/12 16:25:37;;;;;;;3.47;0.70;;;;;;;30.14;27.39;100211.00;1922774;99;25752;-77
2022/06/12 16:29:23;;;;;;;4.70;1.20;;;;;;;30.05;27.54;100206.17;1951271;99;26591;-78
2022/06/12 16:37:41;;;;;;;6.67;1.20;;;;;;;29.88;27.51;100206.70;1781915;109;25754;-78
2022/06/12 16:41:15;;;;;;;2.42;0.80;;;;;;;29.81;27.37;100196.41;1764003;109;25911;-76
2022/06/12 16:44:41;;;;;;;2.15;0.98;;;;;;;29.63;27.21;100197.89;1760470;110;26165;-75
2022/06/12 16:48:04;;;;;;;;;;;;;;;29.63;27.29;100195.66;1794519;108;25693;-77
2022/06/12 16:51:25;;;;;;;2.80;0.85;;;;;;;29.54;27.39;100199.72;1826606;107;26077;-79
2022/06/12 16:54:53;;;;;;;4.17;1.03;;;;;;;29.50;27.49;100199.52;1824400;107;26007;-76
2022/06/12 16:58:31;;;;;;;2.08;0.88;;;;;;;29.47;27.43;100200.18;1827180;106;25844;-77
2022/06/12 17:01:57;;;;;;;;;;;;;;;29.43;27.45;100199.48;1834055;104;25925;-76
2022/06/12 17:05:29;;;;;;;3.45;0.93;;;;;;;29.39;27.35;100202.80;1901617;101;26408;-78
2022/06/12 17:08:56;;;;;;;2.12;0.80;;;;;;;29.32;27.50;100201.91;1887004;104;25775;-79
2022/06/12 17:12:33;;;;;;;2.77;1.05;;;;;;;29.26;27.69;100202.25;1904601;101;25777;-79
2022/06/12 17:16:36;;;;;;;;;;;;;;;;;;;;;
2022/06/12 17:24:20;;;;;;;4.15;1.25;;;;;;;29.09;27.60;100194.70;1985033;96;25894;-78
2022/06/12 17:27:51;;;;;;;1.45;0.72;;;;;;;28.98;27.56;100190.36;1991580;97;26049;-82
2022/06/12 17:31:12;;;;;;;1.10;0.70;;;;;;;28.84;27.82;100194.28;2037120;95;25831;-75
2022/06/12 17:34:44;;;;;;;2.02;0.75;;;;;;;28.60;28.06;100192.00;2056947;96;26465;-73
2022/06/12 17:38:10;;;;;;;1.62;0.72;;;;;;;28.40;29.00;100197.56;2017081;94;25822;-73
2022/06/12 17:41:45;;;;;;;2.70;0.90;;;;;;;28.18;29.04;100191.08;2052301;95;25915;-73
2022/06/12 17:45:08;;;;;;;1.95;0.90;;;;;;;28.01;29.46;100194.64;2056208;95;25749;-82
2022/06/12 17:48:37;;;;;;;1.55;0.70;;;;;;;27.89;29.87;100193.95;2056880;96;25946;-72
2022/06/12 17:52:06;;;;;;;2.67;0.90;;;;;;;27.83;30.00;100192.92;2054330;95;26089;-76
2022/06/12 17:55:35;;;;;;;2.58;1.22;;;;;;;27.79;30.06;100190.88;2044484;95;25846;-76
2022/06/12 17:59:12;;;;;;;;;;;;;;;;;;;;;
2022/06/12 18:02:36;;;;;;;3.12;1.10;;;;;;;27.67;30.15;100180.73;2060347;94;25817;-76
2022/06/12 18:09:58;;;;;;;2.10;1.05;;;;;;;27.62;30.71;100178.30;2047758;95;26226;-78
2022/06/12 18:13:22;;;;;;;4.12;0.82;;;;;;;27.60;30.87;100180.17;2109992;92;25849;-76
2022/06/12 18:20:32;;;;;;;2.42;1.00;;;;;;;27.55;31.09;100175.06;2225199;87;25807;-72
2022/06/12 18:23:54;;;;;;;2.33;1.00;;;;;;;27.54;31.16;100177.83;2221117;87;25885;-72
2022/06/12 18:27:15;;;;;;;2.15;1.30;;;;;;;27.48;31.17;100176.79;2218501;86;25389;-72
2022/06/12 18:30:45;;;;;;;3.02;1.10;;;;;;;27.38;31.30;100187.55;2208147;86;26120;-71
2022/06/12 18:34:10;;;;;;;5.42;1.42;;;;;;;27.29;31.43;100179.48;2229435;86;25888;-76
2022/06/12 18:37:44;;;;;;;;;;;;;;;;;;;;;
2022/06/12 18:40:59;;;;;;;4.67;1.42;;;;;;;27.17;31.78;100182.31;2230618;87;25786;-72
2022/06/12 18:44:28;;;;;;;3.45;1.77;;;;;;;27.10;32.01;100178.16;2236059;88;25759;-75
2022/06/12 18:48:12;;;;;;;4.58;1.65;;;;;;;27.00;32.04;100179.07;2232103;88;25800;-72
2022/06/12 18:51:36;;;;;;;4.15;1.55;;;;;;;26.93;32.26;100182.98;2211741;87;25690;-74
2022/06/12 18:55:18;;;;;;;3.77;1.45;;;;;;;26.83;32.51;100182.55;2233412;87;26562;-75
2022/06/12 18:58:54;;;;;;;6.03;1.37;;;;;;;26.74;32.58;100183.44;2232433;87;25837;-72
2022/06/12 19:02:24;;;;;;;3.65;1.50;;;;;;;26.64;32.81;100184.33;2220973;88;25823;-75
2022/06/12 19:05:57;;;;;;;9.43;1.67;;;;;;;26.62;33.16;100180.84;2240791;87;25815;-86
2022/06/12 19:09:18;;;;;;;7.50;1.98;;;;;;;26.55;33.25;100191.42;2318643;81;25824;-75
2022/06/12 19:12:47;;;;;;;3.72;1.67;;;;;;;26.46;33.48;100194.47;2386259;82;25745;-72
2022/06/12 19:16:09;;;;;;;8.00;1.87;;;;;;;26.38;33.55;100191.67;2381838;82;25727;-71
2022/06/12 19:19:37;;;;;;;4.62;1.82;;;;;;;26.32;33.78;100197.77;2356932;81;25808;-76
2022/06/12 19:22:59;;;;;;;6.95;1.90;;;;;;;26.31;33.88;100201.38;2358018;82;25847;-77
2022/06/12 19:26:21;;;;;;;5.58;1.98;;;;;;;26.26;34.07;100193.58;2384689;82;25924;-71
2022/06/12 19:29:42;;;;;;;5.92;1.95;;;;;;;26.18;34.17;100202.86;2335445;82;25878;-79
2022/06/12 19:33:04;;;;;;;4.62;2.05;;;;;;;26.09;34.39;100205.01;2381957;82;25611;-72
2022/06/12 19:36:29;;;;;;;4.03;2.17;;;;;;;26.00;34.57;100193.37;2386707;82;25640;-72
2022/06/12 19:39:55;;;;;;;8.45;2.42;;;;;;;25.93;34.81;100198.58;2382247;80;25974;-76
2022/06/12 19:43:13;;;;;;;4.22;2.62;;;;;;;25.86;35.12;100195.30;2380794;82;25647;-77
2022/06/12 19:46:37;;;;;;;5.03;2.60;;;;;;;25.79;35.22;100188.93;2358476;82;25837;-78
2022/06/12 19:50:00;;;;;;;4.50;3.35;;;;;;;25.75;35.54;100186.86;2390293;81;25662;-73
2022/06/12 19:53:21;;;;;;;6.92;2.22;;;;;;;25.72;35.79;100195.00;2356002;82;25855;-79
2022/06/12 19:56:42;;;;;;;5.95;2.75;;;;;;;25.64;36.19;100189.95;2365165;82;25679;-72
2022/06/12 20:00:06;;;;;;;6.87;3.35;;;;;;;25.58;36.53;100187.56;2365213;82;25623;-72
2022/06/12 20:03:40;;;;;;;6.85;3.83;;;;;;;25.52;36.71;100187.81;2368647;82;26427;-77
2022/06/12 20:07:30;;;;;;;8.63;4.60;;;;;;;25.47;36.97;100179.11;2378423;82;25662;-79
2022/06/12 20:10:55;;;;;;;4.62;3.33;;;;;;;25.52;37.11;100184.28;2370888;81;26304;-73